sensor_id;sensor_type;location;lat;lon;timestamp;temperature;humidity
20712;DHT22;10517;50.742;4.224;2022-09-14T00:01:12;18.10;99.90
20712;DHT22;10517;50.742;4.224;2022-09-14T00:03:38;18.10;99.90
20712;DHT22;10517;50.742;4.224;2022-09-14T00:06:06;18.10;99.90
20712;DHT22;10517;50.742;4.224;2022-09-14T00:08:33;18.10;99.90
20712;DHT22;10517;50.742;4.224;2022-09-14T00:11:06;18.10;99.90
20712;DHT22;10517;50.742;4.224;2022-09-14T00:13:32;18.10;99.90
20712;DHT22;10517;50.742;4.224;2022-09-14T00:16:03;18.10;99.90
20712;DHT22;10517;50.742;4.224;2022-09-14T00:18:29;18.00;99.90
20712;DHT22;10517;50.742;4.224;2022-09-14T00:21:02;18.00;99.90
20712;DHT22;10517;50.742;4.224;2022-09-14T00:23:28;17.90;99.90
20712;DHT22;10517;50.742;4.224;2022-09-14T00:25:54;17.90;99.90
20712;DHT22;10517;50.742;4.224;2022-09-14T00:28:20;17.90;99.90
20712;DHT22;10517;50.742;4.224;2022-09-14T00:30:45;17.90;99.90
20712;DHT22;10517;50.742;4.224;2022-09-14T00:33:11;17.90;99.90
20712;DHT22;10517;50.742;4.224;2022-09-14T00:35:37;17.80;99.90
20712;DHT22;10517;50.742;4.224;2022-09-14T00:38:03;17.80;99.90
20712;DHT22;10517;50.742;4.224;2022-09-14T00:40:29;17.70;99.90
20712;DHT22;10517;50.742;4.224;2022-09-14T00:42:54;17.70;99.90
20712;DHT22;10517;50.742;4.224;2022-09-14T00:45:21;17.70;99.90
20712;DHT22;10517;50.742;4.224;2022-09-14T00:47:50;17.70;99.90
20712;DHT22;10517;50.742;4.224;2022-09-14T00:50:16;17.60;99.90
20712;DHT22;10517;50.742;4.224;2022-09-14T00:52:46;17.60;99.90
20712;DHT22;10517;50.742;4.224;2022-09-14T00:55:17;17.60;99.90
20712;DHT22;10517;50.742;4.224;2022-09-14T00:57:51;17.60;99.90
20712;DHT22;10517;50.742;4.224;2022-09-14T01:00:23;17.60;99.90
20712;DHT22;10517;50.742;4.224;2022-09-14T01:02:50;17.60;99.90
20712;DHT22;10517;50.742;4.224;2022-09-14T01:05:16;17.60;99.90
20712;DHT22;10517;50.742;4.224;2022-09-14T01:19:00;17.50;99.90
20712;DHT22;10517;50.742;4.224;2022-09-14T01:21:30;17.40;99.90
20712;DHT22;10517;50.742;4.224;2022-09-14T01:24:25;17.40;99.90
20712;DHT22;10517;50.742;4.224;2022-09-14T01:29:43;17.40;99.90
20712;DHT22;10517;50.742;4.224;2022-09-14T01:32:15;17.30;99.90
20712;DHT22;10517;50.742;4.224;2022-09-14T01:34:50;17.30;99.90
20712;DHT22;10517;50.742;4.224;2022-09-14T01:37:26;17.30;99.90
20712;DHT22;10517;50.742;4.224;2022-09-14T01:40:15;17.30;99.90
20712;DHT22;10517;50.742;4.224;2022-09-14T01:42:42;17.30;99.90
20712;DHT22;10517;50.742;4.224;2022-09-14T01:45:12;17.30;99.90
20712;DHT22;10517;50.742;4.224;2022-09-14T01:47:46;17.30;99.90
20712;DHT22;10517;50.742;4.224;2022-09-14T01:50:18;17.30;99.90
20712;DHT22;10517;50.742;4.224;2022-09-14T01:52:53;17.20;99.90
20712;DHT22;10517;50.742;4.224;2022-09-14T01:55:32;17.20;99.90
20712;DHT22;10517;50.742;4.224;2022-09-14T01:58:08;17.10;99.90
20712;DHT22;10517;50.742;4.224;2022-09-14T02:00:38;17.00;99.90
20712;DHT22;10517;50.742;4.224;2022-09-14T02:03:11;16.80;99.90
20712;DHT22;10517;50.742;4.224;2022-09-14T02:08:25;16.70;99.90
20712;DHT22;10517;50.742;4.224;2022-09-14T02:10:51;16.70;99.90
20712;DHT22;10517;50.742;4.224;2022-09-14T02:13:17;16.60;99.90
20712;DHT22;10517;50.742;4.224;2022-09-14T02:15:43;16.60;99.90
20712;DHT22;10517;50.742;4.224;2022-09-14T02:18:09;16.60;99.90
20712;DHT22;10517;50.742;4.224;2022-09-14T02:20:40;16.70;99.90
20712;DHT22;10517;50.742;4.224;2022-09-14T02:23:07;16.70;99.90
20712;DHT22;10517;50.742;4.224;2022-09-14T02:25:33;16.80;99.90
20712;DHT22;10517;50.742;4.224;2022-09-14T02:28:01;16.80;99.90
20712;DHT22;10517;50.742;4.224;2022-09-14T02:30:27;16.90;99.90
20712;DHT22;10517;50.742;4.224;2022-09-14T02:33:15;16.80;99.90
20712;DHT22;10517;50.742;4.224;2022-09-14T02:35:53;16.80;99.90
20712;DHT22;10517;50.742;4.224;2022-09-14T02:38:21;16.90;99.90
20712;DHT22;10517;50.742;4.224;2022-09-14T02:40:56;16.80;99.90
20712;DHT22;10517;50.742;4.224;2022-09-14T02:44:14;16.80;99.90
20712;DHT22;10517;50.742;4.224;2022-09-14T02:46:24;16.80;99.90
20712;DHT22;10517;50.742;4.224;2022-09-14T02:52:14;16.60;99.90
20712;DHT22;10517;50.742;4.224;2022-09-14T02:54:51;16.60;99.90
20712;DHT22;10517;50.742;4.224;2022-09-14T02:57:19;16.60;99.90
20712;DHT22;10517;50.742;4.224;2022-09-14T02:59:44;16.70;99.90
20712;DHT22;10517;50.742;4.224;2022-09-14T03:02:10;16.70;99.90
20712;DHT22;10517;50.742;4.224;2022-09-14T03:04:35;16.80;99.90
20712;DHT22;10517;50.742;4.224;2022-09-14T03:07:01;16.80;99.90
20712;DHT22;10517;50.742;4.224;2022-09-14T03:09:27;16.80;99.90
20712;DHT22;10517;50.742;4.224;2022-09-14T03:11:52;16.70;99.90
20712;DHT22;10517;50.742;4.224;2022-09-14T03:14:18;16.70;99.90
20712;DHT22;10517;50.742;4.224;2022-09-14T03:16:43;16.70;99.90
20712;DHT22;10517;50.742;4.224;2022-09-14T03:19:09;16.70;99.90
20712;DHT22;10517;50.742;4.224;2022-09-14T03:21:37;16.60;99.90
20712;DHT22;10517;50.742;4.224;2022-09-14T03:24:03;16.70;99.90
20712;DHT22;10517;50.742;4.224;2022-09-14T03:26:28;16.80;99.90
20712;DHT22;10517;50.742;4.224;2022-09-14T03:28:56;16.80;99.90
20712;DHT22;10517;50.742;4.224;2022-09-14T03:31:22;16.70;99.90
20712;DHT22;10517;50.742;4.224;2022-09-14T03:33:53;16.50;99.90
20712;DHT22;10517;50.742;4.224;2022-09-14T03:36:19;16.30;99.90
20712;DHT22;10517;50.742;4.224;2022-09-14T03:38:50;16.30;99.90
20712;DHT22;10517;50.742;4.224;2022-09-14T03:41:17;16.20;99.90
20712;DHT22;10517;50.742;4.224;2022-09-14T03:43:43;16.20;99.90
20712;DHT22;10517;50.742;4.224;2022-09-14T03:46:15;16.10;99.90
20712;DHT22;10517;50.742;4.224;2022-09-14T03:48:42;16.00;99.90
20712;DHT22;10517;50.742;4.224;2022-09-14T03:51:10;16.00;99.90
20712;DHT22;10517;50.742;4.224;2022-09-14T03:53:36;16.00;99.90
20712;DHT22;10517;50.742;4.224;2022-09-14T03:56:19;16.00;99.90
20712;DHT22;10517;50.742;4.224;2022-09-14T03:58:46;16.00;99.90
20712;DHT22;10517;50.742;4.224;2022-09-14T04:01:15;16.00;99.90
20712;DHT22;10517;50.742;4.224;2022-09-14T04:03:41;16.10;99.90
20712;DHT22;10517;50.742;4.224;2022-09-14T04:06:07;16.00;99.90
20712;DHT22;10517;50.742;4.224;2022-09-14T04:08:35;15.90;99.90
20712;DHT22;10517;50.742;4.224;2022-09-14T04:11:08;16.00;99.90
20712;DHT22;10517;50.742;4.224;2022-09-14T04:13:35;16.00;99.90
20712;DHT22;10517;50.742;4.224;2022-09-14T04:16:01;16.10;99.90
20712;DHT22;10517;50.742;4.224;2022-09-14T04:18:27;16.20;99.90
20712;DHT22;10517;50.742;4.224;2022-09-14T04:21:04;16.20;99.90
20712;DHT22;10517;50.742;4.224;2022-09-14T04:23:31;16.10;99.90
20712;DHT22;10517;50.742;4.224;2022-09-14T04:25:57;16.00;99.90
20712;DHT22;10517;50.742;4.224;2022-09-14T04:28:23;16.00;99.90
20712;DHT22;10517;50.742;4.224;2022-09-14T04:30:57;15.90;99.90
20712;DHT22;10517;50.742;4.224;2022-09-14T04:33:23;15.80;99.90
20712;DHT22;10517;50.742;4.224;2022-09-14T04:36:00;15.80;99.90
20712;DHT22;10517;50.742;4.224;2022-09-14T04:38:28;15.70;99.90
20712;DHT22;10517;50.742;4.224;2022-09-14T04:40:54;15.70;99.90
20712;DHT22;10517;50.742;4.224;2022-09-14T04:43:20;15.70;99.90
20712;DHT22;10517;50.742;4.224;2022-09-14T04:45:46;15.60;99.90
20712;DHT22;10517;50.742;4.224;2022-09-14T04:48:12;15.60;99.90
20712;DHT22;10517;50.742;4.224;2022-09-14T04:50:37;15.50;99.90
20712;DHT22;10517;50.742;4.224;2022-09-14T04:53:03;15.50;99.90
20712;DHT22;10517;50.742;4.224;2022-09-14T04:55:28;15.50;99.90
20712;DHT22;10517;50.742;4.224;2022-09-14T04:57:54;15.50;99.90
20712;DHT22;10517;50.742;4.224;2022-09-14T05:00:19;15.40;99.90
20712;DHT22;10517;50.742;4.224;2022-09-14T05:02:45;15.40;99.90
20712;DHT22;10517;50.742;4.224;2022-09-14T05:05:11;15.40;99.90
20712;DHT22;10517;50.742;4.224;2022-09-14T05:07:36;15.40;99.90
20712;DHT22;10517;50.742;4.224;2022-09-14T05:10:02;15.40;99.90
20712;DHT22;10517;50.742;4.224;2022-09-14T05:12:29;15.40;99.90
20712;DHT22;10517;50.742;4.224;2022-09-14T05:14:54;15.50;99.90
20712;DHT22;10517;50.742;4.224;2022-09-14T05:17:20;15.50;99.90
20712;DHT22;10517;50.742;4.224;2022-09-14T05:19:45;15.40;99.90
20712;DHT22;10517;50.742;4.224;2022-09-14T05:22:11;15.40;99.90
20712;DHT22;10517;50.742;4.224;2022-09-14T05:24:37;15.40;99.90
20712;DHT22;10517;50.742;4.224;2022-09-14T05:27:02;15.50;99.90
20712;DHT22;10517;50.742;4.224;2022-09-14T05:29:28;15.50;99.90
20712;DHT22;10517;50.742;4.224;2022-09-14T05:31:54;15.50;99.90
20712;DHT22;10517;50.742;4.224;2022-09-14T05:34:19;15.50;99.90
20712;DHT22;10517;50.742;4.224;2022-09-14T05:36:45;15.50;99.90
20712;DHT22;10517;50.742;4.224;2022-09-14T05:39:11;15.60;99.90
20712;DHT22;10517;50.742;4.224;2022-09-14T05:41:37;15.60;99.90
20712;DHT22;10517;50.742;4.224;2022-09-14T05:44:03;15.60;99.90
20712;DHT22;10517;50.742;4.224;2022-09-14T05:46:29;15.60;99.90
20712;DHT22;10517;50.742;4.224;2022-09-14T05:48:55;15.60;99.90
20712;DHT22;10517;50.742;4.224;2022-09-14T05:51:23;15.50;99.90
20712;DHT22;10517;50.742;4.224;2022-09-14T05:53:58;15.60;99.90
20712;DHT22;10517;50.742;4.224;2022-09-14T05:56:26;15.50;99.90
20712;DHT22;10517;50.742;4.224;2022-09-14T05:58:52;15.50;99.90
20712;DHT22;10517;50.742;4.224;2022-09-14T06:01:26;15.50;99.90
20712;DHT22;10517;50.742;4.224;2022-09-14T06:03:53;15.50;99.90
20712;DHT22;10517;50.742;4.224;2022-09-14T06:06:20;15.60;99.90
20712;DHT22;10517;50.742;4.224;2022-09-14T06:08:48;15.60;99.90
20712;DHT22;10517;50.742;4.224;2022-09-14T06:11:18;15.70;99.90
20712;DHT22;10517;50.742;4.224;2022-09-14T06:13:45;15.70;99.90
20712;DHT22;10517;50.742;4.224;2022-09-14T06:16:15;15.70;99.90
20712;DHT22;10517;50.742;4.224;2022-09-14T06:18:42;15.80;99.90
20712;DHT22;10517;50.742;4.224;2022-09-14T06:21:10;15.90;99.90
20712;DHT22;10517;50.742;4.224;2022-09-14T06:23:39;16.00;99.90
20712;DHT22;10517;50.742;4.224;2022-09-14T06:26:05;16.00;99.90
20712;DHT22;10517;50.742;4.224;2022-09-14T06:28:33;16.00;99.90
20712;DHT22;10517;50.742;4.224;2022-09-14T06:30:59;16.10;99.90
20712;DHT22;10517;50.742;4.224;2022-09-14T06:33:25;16.10;99.90
20712;DHT22;10517;50.742;4.224;2022-09-14T06:36:02;16.10;99.90
20712;DHT22;10517;50.742;4.224;2022-09-14T06:38:29;15.90;99.90
20712;DHT22;10517;50.742;4.224;2022-09-14T06:40:59;15.90;99.90
20712;DHT22;10517;50.742;4.224;2022-09-14T06:43:28;15.90;99.90
20712;DHT22;10517;50.742;4.224;2022-09-14T06:48:25;15.90;99.90
20712;DHT22;10517;50.742;4.224;2022-09-14T06:50:50;15.80;99.90
20712;DHT22;10517;50.742;4.224;2022-09-14T06:53:16;15.80;99.90
20712;DHT22;10517;50.742;4.224;2022-09-14T06:55:42;15.80;99.90
20712;DHT22;10517;50.742;4.224;2022-09-14T06:58:10;15.80;99.90
20712;DHT22;10517;50.742;4.224;2022-09-14T07:00:35;15.90;99.90
20712;DHT22;10517;50.742;4.224;2022-09-14T07:03:01;16.00;99.90
20712;DHT22;10517;50.742;4.224;2022-09-14T07:05:27;16.10;99.90
20712;DHT22;10517;50.742;4.224;2022-09-14T07:07:52;16.20;99.90
20712;DHT22;10517;50.742;4.224;2022-09-14T07:10:18;16.30;99.90
20712;DHT22;10517;50.742;4.224;2022-09-14T07:12:44;16.40;99.90
20712;DHT22;10517;50.742;4.224;2022-09-14T07:15:10;16.50;99.90
20712;DHT22;10517;50.742;4.224;2022-09-14T07:17:35;16.50;99.90
20712;DHT22;10517;50.742;4.224;2022-09-14T07:20:05;16.50;99.90
20712;DHT22;10517;50.742;4.224;2022-09-14T07:22:34;16.40;99.90
20712;DHT22;10517;50.742;4.224;2022-09-14T07:25:00;16.30;99.90
20712;DHT22;10517;50.742;4.224;2022-09-14T07:27:26;16.10;99.90
20712;DHT22;10517;50.742;4.224;2022-09-14T07:29:51;16.00;99.90
20712;DHT22;10517;50.742;4.224;2022-09-14T07:32:17;16.00;99.90
20712;DHT22;10517;50.742;4.224;2022-09-14T07:34:43;16.10;99.90
20712;DHT22;10517;50.742;4.224;2022-09-14T07:37:09;16.10;99.90
20712;DHT22;10517;50.742;4.224;2022-09-14T07:39:35;16.10;99.90
20712;DHT22;10517;50.742;4.224;2022-09-14T07:42:00;16.30;99.90
20712;DHT22;10517;50.742;4.224;2022-09-14T07:44:26;16.10;99.90
20712;DHT22;10517;50.742;4.224;2022-09-14T07:46:51;16.10;99.90
20712;DHT22;10517;50.742;4.224;2022-09-14T07:49:17;16.00;99.90
20712;DHT22;10517;50.742;4.224;2022-09-14T07:51:43;16.00;99.90
20712;DHT22;10517;50.742;4.224;2022-09-14T07:54:11;15.90;99.90
20712;DHT22;10517;50.742;4.224;2022-09-14T07:56:39;15.80;99.90
20712;DHT22;10517;50.742;4.224;2022-09-14T07:59:04;15.90;99.90
20712;DHT22;10517;50.742;4.224;2022-09-14T08:01:30;15.90;99.90
20712;DHT22;10517;50.742;4.224;2022-09-14T08:04:00;16.00;99.90
20712;DHT22;10517;50.742;4.224;2022-09-14T08:06:27;16.10;99.90
20712;DHT22;10517;50.742;4.224;2022-09-14T08:08:53;16.00;99.90
20712;DHT22;10517;50.742;4.224;2022-09-14T08:11:25;16.10;99.90
20712;DHT22;10517;50.742;4.224;2022-09-14T08:14:06;15.90;99.90
20712;DHT22;10517;50.742;4.224;2022-09-14T08:16:34;16.00;99.90
20712;DHT22;10517;50.742;4.224;2022-09-14T08:19:03;16.00;99.90
20712;DHT22;10517;50.742;4.224;2022-09-14T08:21:30;16.20;99.90
20712;DHT22;10517;50.742;4.224;2022-09-14T08:23:56;16.30;99.90
20712;DHT22;10517;50.742;4.224;2022-09-14T08:26:25;16.30;99.90
20712;DHT22;10517;50.742;4.224;2022-09-14T08:28:52;16.30;99.90
20712;DHT22;10517;50.742;4.224;2022-09-14T08:31:23;16.30;99.90
20712;DHT22;10517;50.742;4.224;2022-09-14T08:33:57;16.20;99.90
20712;DHT22;10517;50.742;4.224;2022-09-14T08:36:24;16.30;99.90
20712;DHT22;10517;50.742;4.224;2022-09-14T08:38:50;16.40;99.90
20712;DHT22;10517;50.742;4.224;2022-09-14T08:41:28;16.40;99.90
20712;DHT22;10517;50.742;4.224;2022-09-14T08:46:50;16.50;99.90
20712;DHT22;10517;50.742;4.224;2022-09-14T08:51:55;16.60;99.90
20712;DHT22;10517;50.742;4.224;2022-09-14T08:54:21;16.80;99.90
20712;DHT22;10517;50.742;4.224;2022-09-14T08:56:55;16.80;99.90
20712;DHT22;10517;50.742;4.224;2022-09-14T08:59:36;16.80;99.90
20712;DHT22;10517;50.742;4.224;2022-09-14T09:05:02;16.70;99.90
20712;DHT22;10517;50.742;4.224;2022-09-14T09:10:22;16.70;99.90
20712;DHT22;10517;50.742;4.224;2022-09-14T09:12:56;16.90;99.90
20712;DHT22;10517;50.742;4.224;2022-09-14T09:15:29;17.00;99.90
20712;DHT22;10517;50.742;4.224;2022-09-14T09:18:00;17.00;99.90
20712;DHT22;10517;50.742;4.224;2022-09-14T09:20:43;17.00;99.90
20712;DHT22;10517;50.742;4.224;2022-09-14T09:23:16;17.10;99.90
20712;DHT22;10517;50.742;4.224;2022-09-14T09:25:52;17.10;99.90
20712;DHT22;10517;50.742;4.224;2022-09-14T09:28:19;17.00;99.90
20712;DHT22;10517;50.742;4.224;2022-09-14T09:30:46;16.90;99.90
20712;DHT22;10517;50.742;4.224;2022-09-14T09:33:19;16.80;99.90
20712;DHT22;10517;50.742;4.224;2022-09-14T09:35:45;16.80;99.90
20712;DHT22;10517;50.742;4.224;2022-09-14T09:38:17;17.00;99.90
20712;DHT22;10517;50.742;4.224;2022-09-14T09:41:06;17.00;99.90
20712;DHT22;10517;50.742;4.224;2022-09-14T09:44:01;17.00;99.90
20712;DHT22;10517;50.742;4.224;2022-09-14T09:46:30;17.00;99.90
20712;DHT22;10517;50.742;4.224;2022-09-14T09:48:58;17.00;99.90
20712;DHT22;10517;50.742;4.224;2022-09-14T09:56:38;16.90;99.90
20712;DHT22;10517;50.742;4.224;2022-09-14T09:59:41;16.80;99.90
20712;DHT22;10517;50.742;4.224;2022-09-14T10:05:18;16.80;99.90
20712;DHT22;10517;50.742;4.224;2022-09-14T10:07:57;17.00;99.90
20712;DHT22;10517;50.742;4.224;2022-09-14T10:13:06;17.10;99.90
20712;DHT22;10517;50.742;4.224;2022-09-14T10:15:40;17.10;99.90
20712;DHT22;10517;50.742;4.224;2022-09-14T10:25:43;17.30;99.90
20712;DHT22;10517;50.742;4.224;2022-09-14T10:28:29;17.30;99.90
20712;DHT22;10517;50.742;4.224;2022-09-14T10:33:45;17.50;99.90
20712;DHT22;10517;50.742;4.224;2022-09-14T10:36:31;17.40;99.90
20712;DHT22;10517;50.742;4.224;2022-09-14T10:44:42;17.20;99.90
20712;DHT22;10517;50.742;4.224;2022-09-14T10:50:27;17.20;99.90
20712;DHT22;10517;50.742;4.224;2022-09-14T10:53:18;17.20;99.90
20712;DHT22;10517;50.742;4.224;2022-09-14T10:56:13;17.40;99.90
20712;DHT22;10517;50.742;4.224;2022-09-14T11:18:13;17.20;99.90
20712;DHT22;10517;50.742;4.224;2022-09-14T11:26:16;17.40;99.90
20712;DHT22;10517;50.742;4.224;2022-09-14T11:31:51;17.50;99.90
20712;DHT22;10517;50.742;4.224;2022-09-14T11:34:39;17.50;99.90
20712;DHT22;10517;50.742;4.224;2022-09-14T11:37:10;17.40;99.90
20712;DHT22;10517;50.742;4.224;2022-09-14T11:39:41;17.30;99.90
20712;DHT22;10517;50.742;4.224;2022-09-14T11:42:21;17.20;99.90
20712;DHT22;10517;50.742;4.224;2022-09-14T11:44:51;16.90;99.90
20712;DHT22;10517;50.742;4.224;2022-09-14T11:47:20;16.90;99.90
20712;DHT22;10517;50.742;4.224;2022-09-14T11:50:00;17.00;99.90
20712;DHT22;10517;50.742;4.224;2022-09-14T11:52:29;17.00;99.90
20712;DHT22;10517;50.742;4.224;2022-09-14T11:54:56;16.90;99.90
20712;DHT22;10517;50.742;4.224;2022-09-14T11:57:28;16.80;99.90
20712;DHT22;10517;50.742;4.224;2022-09-14T11:59:58;16.90;99.90
20712;DHT22;10517;50.742;4.224;2022-09-14T12:15:35;16.90;99.90
20712;DHT22;10517;50.742;4.224;2022-09-14T12:20:42;16.90;99.90
20712;DHT22;10517;50.742;4.224;2022-09-14T12:26:02;17.00;99.90
20712;DHT22;10517;50.742;4.224;2022-09-14T12:44:00;17.00;99.90
20712;DHT22;10517;50.742;4.224;2022-09-14T12:46:29;17.00;99.90
20712;DHT22;10517;50.742;4.224;2022-09-14T12:49:00;17.00;99.90
20712;DHT22;10517;50.742;4.224;2022-09-14T12:54:15;17.20;99.90
20712;DHT22;10517;50.742;4.224;2022-09-14T12:59:45;16.90;99.90
20712;DHT22;10517;50.742;4.224;2022-09-14T13:05:20;16.90;99.90
20712;DHT22;10517;50.742;4.224;2022-09-14T13:07:48;17.00;99.90
20712;DHT22;10517;50.742;4.224;2022-09-14T13:10:34;16.90;99.90
20712;DHT22;10517;50.742;4.224;2022-09-14T13:13:04;16.90;99.90
20712;DHT22;10517;50.742;4.224;2022-09-14T13:15:33;16.80;99.90
20712;DHT22;10517;50.742;4.224;2022-09-14T13:20:50;16.80;99.90
20712;DHT22;10517;50.742;4.224;2022-09-14T13:25:56;16.80;99.90
20712;DHT22;10517;50.742;4.224;2022-09-14T13:28:29;17.00;99.90
20712;DHT22;10517;50.742;4.224;2022-09-14T13:30:58;17.00;99.90
20712;DHT22;10517;50.742;4.224;2022-09-14T13:33:24;17.20;99.90
20712;DHT22;10517;50.742;4.224;2022-09-14T13:35:55;17.30;99.90
20712;DHT22;10517;50.742;4.224;2022-09-14T13:38:28;17.40;99.90
20712;DHT22;10517;50.742;4.224;2022-09-14T13:40:55;17.20;99.90
20712;DHT22;10517;50.742;4.224;2022-09-14T13:43:28;17.20;99.90
20712;DHT22;10517;50.742;4.224;2022-09-14T13:45:54;17.10;99.90
20712;DHT22;10517;50.742;4.224;2022-09-14T13:48:20;17.20;99.90
20712;DHT22;10517;50.742;4.224;2022-09-14T13:50:48;17.10;99.90
20712;DHT22;10517;50.742;4.224;2022-09-14T13:56:27;17.10;99.90
20712;DHT22;10517;50.742;4.224;2022-09-14T14:01:34;17.20;99.90
20712;DHT22;10517;50.742;4.224;2022-09-14T14:04:01;17.10;99.90
20712;DHT22;10517;50.742;4.224;2022-09-14T14:06:29;17.10;99.90
20712;DHT22;10517;50.742;4.224;2022-09-14T14:11:50;17.20;99.90
20712;DHT22;10517;50.742;4.224;2022-09-14T14:19:46;17.10;99.90
20712;DHT22;10517;50.742;4.224;2022-09-14T14:22:31;17.10;99.90
20712;DHT22;10517;50.742;4.224;2022-09-14T14:24:57;17.00;99.90
20712;DHT22;10517;50.742;4.224;2022-09-14T14:27:35;16.90;99.90
20712;DHT22;10517;50.742;4.224;2022-09-14T14:32:39;16.90;99.90
20712;DHT22;10517;50.742;4.224;2022-09-14T14:35:21;17.00;99.90
20712;DHT22;10517;50.742;4.224;2022-09-14T14:37:47;17.00;99.90
20712;DHT22;10517;50.742;4.224;2022-09-14T14:40:15;17.00;99.90
20712;DHT22;10517;50.742;4.224;2022-09-14T14:42:41;17.10;99.90
20712;DHT22;10517;50.742;4.224;2022-09-14T14:45:13;17.20;99.90
20712;DHT22;10517;50.742;4.224;2022-09-14T14:47:40;17.10;99.90
20712;DHT22;10517;50.742;4.224;2022-09-14T14:50:16;17.10;99.90
20712;DHT22;10517;50.742;4.224;2022-09-14T14:52:42;17.00;99.90
20712;DHT22;10517;50.742;4.224;2022-09-14T14:55:08;17.00;99.90
20712;DHT22;10517;50.742;4.224;2022-09-14T14:57:35;16.90;99.90
20712;DHT22;10517;50.742;4.224;2022-09-14T15:00:05;16.80;99.90
20712;DHT22;10517;50.742;4.224;2022-09-14T15:02:36;16.80;99.90
20712;DHT22;10517;50.742;4.224;2022-09-14T15:05:02;16.80;99.90
20712;DHT22;10517;50.742;4.224;2022-09-14T15:07:27;16.90;99.90
20712;DHT22;10517;50.742;4.224;2022-09-14T15:09:56;16.90;99.90
20712;DHT22;10517;50.742;4.224;2022-09-14T15:12:22;16.90;99.90
20712;DHT22;10517;50.742;4.224;2022-09-14T15:14:47;17.00;99.90
20712;DHT22;10517;50.742;4.224;2022-09-14T15:17:13;17.10;99.90
20712;DHT22;10517;50.742;4.224;2022-09-14T15:19:38;17.10;99.90
20712;DHT22;10517;50.742;4.224;2022-09-14T15:22:04;17.10;99.90
20712;DHT22;10517;50.742;4.224;2022-09-14T15:24:29;17.20;99.90
20712;DHT22;10517;50.742;4.224;2022-09-14T15:26:55;17.30;99.90
20712;DHT22;10517;50.742;4.224;2022-09-14T15:29:21;17.30;99.90
20712;DHT22;10517;50.742;4.224;2022-09-14T15:31:47;17.30;99.90
20712;DHT22;10517;50.742;4.224;2022-09-14T15:34:12;17.20;99.90
20712;DHT22;10517;50.742;4.224;2022-09-14T15:36:44;17.10;99.90
20712;DHT22;10517;50.742;4.224;2022-09-14T15:39:22;17.00;99.90
20712;DHT22;10517;50.742;4.224;2022-09-14T15:41:48;16.90;99.90
20712;DHT22;10517;50.742;4.224;2022-09-14T15:44:14;16.80;99.90
20712;DHT22;10517;50.742;4.224;2022-09-14T15:46:40;16.80;99.90
20712;DHT22;10517;50.742;4.224;2022-09-14T15:49:11;16.80;99.90
20712;DHT22;10517;50.742;4.224;2022-09-14T15:51:37;16.70;99.90
20712;DHT22;10517;50.742;4.224;2022-09-14T15:54:03;16.60;99.90
20712;DHT22;10517;50.742;4.224;2022-09-14T15:56:29;16.60;99.90
20712;DHT22;10517;50.742;4.224;2022-09-14T15:58:58;16.50;99.90
20712;DHT22;10517;50.742;4.224;2022-09-14T16:01:26;16.60;99.90
20712;DHT22;10517;50.742;4.224;2022-09-14T16:03:57;16.50;99.90
20712;DHT22;10517;50.742;4.224;2022-09-14T16:06:23;16.50;99.90
20712;DHT22;10517;50.742;4.224;2022-09-14T16:08:48;16.40;99.90
20712;DHT22;10517;50.742;4.224;2022-09-14T16:11:14;16.30;99.90
20712;DHT22;10517;50.742;4.224;2022-09-14T16:13:40;16.30;99.90
20712;DHT22;10517;50.742;4.224;2022-09-14T16:16:07;16.20;99.90
20712;DHT22;10517;50.742;4.224;2022-09-14T16:18:34;16.20;99.90
20712;DHT22;10517;50.742;4.224;2022-09-14T16:21:09;16.10;99.90
20712;DHT22;10517;50.742;4.224;2022-09-14T16:23:38;16.00;99.90
20712;DHT22;10517;50.742;4.224;2022-09-14T16:26:05;15.90;99.90
20712;DHT22;10517;50.742;4.224;2022-09-14T16:28:31;16.00;99.90
20712;DHT22;10517;50.742;4.224;2022-09-14T16:31:08;16.00;99.90
20712;DHT22;10517;50.742;4.224;2022-09-14T16:33:42;16.00;99.90
20712;DHT22;10517;50.742;4.224;2022-09-14T16:36:10;16.00;99.90
20712;DHT22;10517;50.742;4.224;2022-09-14T16:38:37;15.90;99.90
20712;DHT22;10517;50.742;4.224;2022-09-14T16:41:04;15.90;99.90
20712;DHT22;10517;50.742;4.224;2022-09-14T16:43:30;15.80;99.90
20712;DHT22;10517;50.742;4.224;2022-09-14T16:46:04;15.80;99.90
20712;DHT22;10517;50.742;4.224;2022-09-14T16:48:31;15.70;99.90
20712;DHT22;10517;50.742;4.224;2022-09-14T16:50:57;15.70;99.90
20712;DHT22;10517;50.742;4.224;2022-09-14T16:53:26;15.80;99.90
20712;DHT22;10517;50.742;4.224;2022-09-14T16:56:08;15.80;99.90
20712;DHT22;10517;50.742;4.224;2022-09-14T16:58:36;15.80;99.90
20712;DHT22;10517;50.742;4.224;2022-09-14T17:01:10;15.80;99.90
20712;DHT22;10517;50.742;4.224;2022-09-14T17:03:37;15.70;99.90
20712;DHT22;10517;50.742;4.224;2022-09-14T17:06:04;15.70;99.90
20712;DHT22;10517;50.742;4.224;2022-09-14T17:08:31;15.70;99.90
20712;DHT22;10517;50.742;4.224;2022-09-14T17:10:57;15.60;99.90
20712;DHT22;10517;50.742;4.224;2022-09-14T17:13:23;15.50;99.90
20712;DHT22;10517;50.742;4.224;2022-09-14T17:15:49;15.50;99.90
20712;DHT22;10517;50.742;4.224;2022-09-14T17:18:15;15.30;99.90
20712;DHT22;10517;50.742;4.224;2022-09-14T17:20:52;15.30;99.90
20712;DHT22;10517;50.742;4.224;2022-09-14T17:23:18;15.20;99.90
20712;DHT22;10517;50.742;4.224;2022-09-14T17:25:43;15.20;99.90
20712;DHT22;10517;50.742;4.224;2022-09-14T17:28:09;15.20;99.90
20712;DHT22;10517;50.742;4.224;2022-09-14T17:30:34;15.30;99.90
20712;DHT22;10517;50.742;4.224;2022-09-14T17:33:00;15.40;99.90
20712;DHT22;10517;50.742;4.224;2022-09-14T17:35:25;15.40;99.90
20712;DHT22;10517;50.742;4.224;2022-09-14T17:37:51;15.30;99.90
20712;DHT22;10517;50.742;4.224;2022-09-14T17:40:16;15.40;99.90
20712;DHT22;10517;50.742;4.224;2022-09-14T17:42:42;15.50;99.90
20712;DHT22;10517;50.742;4.224;2022-09-14T17:45:08;15.50;99.90
20712;DHT22;10517;50.742;4.224;2022-09-14T17:47:34;15.60;99.90
20712;DHT22;10517;50.742;4.224;2022-09-14T17:50:00;15.60;99.90
20712;DHT22;10517;50.742;4.224;2022-09-14T17:52:26;15.50;99.90
20712;DHT22;10517;50.742;4.224;2022-09-14T17:54:51;15.40;99.90
20712;DHT22;10517;50.742;4.224;2022-09-14T17:57:17;15.30;99.90
20712;DHT22;10517;50.742;4.224;2022-09-14T17:59:43;15.20;99.90
20712;DHT22;10517;50.742;4.224;2022-09-14T18:02:09;15.20;99.90
20712;DHT22;10517;50.742;4.224;2022-09-14T18:04:35;15.20;99.90
20712;DHT22;10517;50.742;4.224;2022-09-14T18:07:02;15.20;99.90
20712;DHT22;10517;50.742;4.224;2022-09-14T18:09:29;15.20;99.90
20712;DHT22;10517;50.742;4.224;2022-09-14T18:11:56;15.30;99.90
20712;DHT22;10517;50.742;4.224;2022-09-14T18:14:22;15.30;99.90
20712;DHT22;10517;50.742;4.224;2022-09-14T18:16:48;15.20;99.90
20712;DHT22;10517;50.742;4.224;2022-09-14T18:19:14;15.10;99.90